sensor_id;sensor_type;location;lat;lon;timestamp;P1;durP1;ratioP1;P2;durP2;ratioP2
24729;SDS011;12832;52.392;13.066;2023-12-20T00:01:12;0.35;;;0.35;;
24729;SDS011;12832;52.392;13.066;2023-12-20T00:03:38;0.40;;;0.40;;
24729;SDS011;12832;52.392;13.066;2023-12-20T00:06:08;0.30;;;0.30;;
24729;SDS011;12832;52.392;13.066;2023-12-20T00:08:35;0.30;;;0.30;;
24729;SDS011;12832;52.392;13.066;2023-12-20T00:11:02;0.30;;;0.30;;
24729;SDS011;12832;52.392;13.066;2023-12-20T00:13:28;0.32;;;0.32;;
24729;SDS011;12832;52.392;13.066;2023-12-20T00:15:55;0.70;;;0.50;;
24729;SDS011;12832;52.392;13.066;2023-12-20T00:18:22;0.50;;;0.43;;
24729;SDS011;12832;52.392;13.066;2023-12-20T00:20:48;0.30;;;0.30;;
24729;SDS011;12832;52.392;13.066;2023-12-20T00:23:15;0.40;;;0.40;;
24729;SDS011;12832;52.392;13.066;2023-12-20T00:25:41;0.40;;;0.40;;
24729;SDS011;12832;52.392;13.066;2023-12-20T00:28:08;0.38;;;0.38;;
24729;SDS011;12832;52.392;13.066;2023-12-20T00:30:35;0.40;;;0.30;;
24729;SDS011;12832;52.392;13.066;2023-12-20T00:33:02;0.40;;;0.40;;
24729;SDS011;12832;52.392;13.066;2023-12-20T00:35:29;0.50;;;0.50;;
24729;SDS011;12832;52.392;13.066;2023-12-20T00:37:55;0.40;;;0.40;;
24729;SDS011;12832;52.392;13.066;2023-12-20T00:40:22;0.40;;;0.40;;
24729;SDS011;12832;52.392;13.066;2023-12-20T00:42:49;0.50;;;0.50;;
24729;SDS011;12832;52.392;13.066;2023-12-20T00:45:15;0.30;;;0.30;;
24729;SDS011;12832;52.392;13.066;2023-12-20T00:47:42;0.38;;;0.38;;
24729;SDS011;12832;52.392;13.066;2023-12-20T00:50:10;0.47;;;0.47;;
24729;SDS011;12832;52.392;13.066;2023-12-20T00:52:36;0.45;;;0.43;;
24729;SDS011;12832;52.392;13.066;2023-12-20T00:55:03;0.38;;;0.38;;
24729;SDS011;12832;52.392;13.066;2023-12-20T00:57:30;0.40;;;0.30;;
24729;SDS011;12832;52.392;13.066;2023-12-20T00:59:58;0.32;;;0.32;;
24729;SDS011;12832;52.392;13.066;2023-12-20T01:02:24;0.40;;;0.40;;
24729;SDS011;12832;52.392;13.066;2023-12-20T01:04:51;0.50;;;0.50;;
24729;SDS011;12832;52.392;13.066;2023-12-20T01:07:18;0.38;;;0.38;;
24729;SDS011;12832;52.392;13.066;2023-12-20T01:09:45;0.40;;;0.40;;
24729;SDS011;12832;52.392;13.066;2023-12-20T01:12:11;0.35;;;0.35;;
24729;SDS011;12832;52.392;13.066;2023-12-20T01:14:38;0.40;;;0.40;;
24729;SDS011;12832;52.392;13.066;2023-12-20T01:17:05;0.40;;;0.40;;
24729;SDS011;12832;52.392;13.066;2023-12-20T01:19:31;0.30;;;0.30;;
24729;SDS011;12832;52.392;13.066;2023-12-20T01:21:58;0.50;;;0.40;;
24729;SDS011;12832;52.392;13.066;2023-12-20T01:24:25;0.40;;;0.40;;
24729;SDS011;12832;52.392;13.066;2023-12-20T01:26:51;0.20;;;0.20;;
24729;SDS011;12832;52.392;13.066;2023-12-20T01:29:18;0.43;;;0.43;;
24729;SDS011;12832;52.392;13.066;2023-12-20T01:31:45;0.50;;;0.50;;
24729;SDS011;12832;52.392;13.066;2023-12-20T01:34:12;0.30;;;0.30;;
24729;SDS011;12832;52.392;13.066;2023-12-20T01:36:38;0.40;;;0.30;;
24729;SDS011;12832;52.392;13.066;2023-12-20T01:39:05;0.30;;;0.30;;
24729;SDS011;12832;52.392;13.066;2023-12-20T01:41:49;0.30;;;0.30;;
24729;SDS011;12832;52.392;13.066;2023-12-20T01:44:16;0.30;;;0.30;;
24729;SDS011;12832;52.392;13.066;2023-12-20T01:46:43;0.80;;;0.40;;
24729;SDS011;12832;52.392;13.066;2023-12-20T01:49:09;0.60;;;0.60;;
24729;SDS011;12832;52.392;13.066;2023-12-20T01:51:36;0.30;;;0.30;;
24729;SDS011;12832;52.392;13.066;2023-12-20T01:54:03;0.73;;;0.30;;
24729;SDS011;12832;52.392;13.066;2023-12-20T01:56:30;0.40;;;0.40;;
24729;SDS011;12832;52.392;13.066;2023-12-20T01:58:57;0.30;;;0.30;;
24729;SDS011;12832;52.392;13.066;2023-12-20T02:01:24;0.40;;;0.40;;
24729;SDS011;12832;52.392;13.066;2023-12-20T02:03:51;0.50;;;0.50;;
24729;SDS011;12832;52.392;13.066;2023-12-20T02:06:18;0.40;;;0.40;;
24729;SDS011;12832;52.392;13.066;2023-12-20T02:08:45;0.30;;;0.30;;
24729;SDS011;12832;52.392;13.066;2023-12-20T02:11:11;0.30;;;0.30;;
24729;SDS011;12832;52.392;13.066;2023-12-20T02:13:38;0.45;;;0.45;;
24729;SDS011;12832;52.392;13.066;2023-12-20T02:16:05;0.35;;;0.35;;
24729;SDS011;12832;52.392;13.066;2023-12-20T02:18:33;0.50;;;0.38;;
24729;SDS011;12832;52.392;13.066;2023-12-20T02:21:00;0.50;;;0.35;;
24729;SDS011;12832;52.392;13.066;2023-12-20T02:23:26;0.22;;;0.22;;
24729;SDS011;12832;52.392;13.066;2023-12-20T02:25:53;0.30;;;0.30;;
24729;SDS011;12832;52.392;13.066;2023-12-20T02:28:20;0.40;;;0.40;;
24729;SDS011;12832;52.392;13.066;2023-12-20T02:30:48;0.45;;;0.45;;
24729;SDS011;12832;52.392;13.066;2023-12-20T02:33:15;0.30;;;0.30;;
24729;SDS011;12832;52.392;13.066;2023-12-20T02:35:42;0.30;;;0.30;;
24729;SDS011;12832;52.392;13.066;2023-12-20T02:38:08;0.35;;;0.30;;
24729;SDS011;12832;52.392;13.066;2023-12-20T02:40:35;0.30;;;0.30;;
24729;SDS011;12832;52.392;13.066;2023-12-20T02:43:01;0.30;;;0.30;;
24729;SDS011;12832;52.392;13.066;2023-12-20T02:45:28;0.73;;;0.43;;
24729;SDS011;12832;52.392;13.066;2023-12-20T02:47:55;0.43;;;0.43;;
24729;SDS011;12832;52.392;13.066;2023-12-20T02:50:21;0.40;;;0.40;;
24729;SDS011;12832;52.392;13.066;2023-12-20T02:52:48;0.30;;;0.30;;
24729;SDS011;12832;52.392;13.066;2023-12-20T02:55:15;0.30;;;0.30;;
24729;SDS011;12832;52.392;13.066;2023-12-20T02:57:41;0.68;;;0.40;;
24729;SDS011;12832;52.392;13.066;2023-12-20T03:00:09;0.47;;;0.47;;
24729;SDS011;12832;52.392;13.066;2023-12-20T03:02:39;0.50;;;0.50;;
24729;SDS011;12832;52.392;13.066;2023-12-20T03:05:06;0.45;;;0.40;;
24729;SDS011;12832;52.392;13.066;2023-12-20T03:07:33;0.40;;;0.40;;
24729;SDS011;12832;52.392;13.066;2023-12-20T03:09:59;0.40;;;0.40;;
24729;SDS011;12832;52.392;13.066;2023-12-20T03:12:44;0.30;;;0.30;;
24729;SDS011;12832;52.392;13.066;2023-12-20T03:15:11;0.30;;;0.30;;
24729;SDS011;12832;52.392;13.066;2023-12-20T03:17:38;0.30;;;0.30;;
24729;SDS011;12832;52.392;13.066;2023-12-20T03:20:05;0.50;;;0.50;;
24729;SDS011;12832;52.392;13.066;2023-12-20T03:22:32;0.30;;;0.30;;
24729;SDS011;12832;52.392;13.066;2023-12-20T03:24:58;0.40;;;0.30;;
24729;SDS011;12832;52.392;13.066;2023-12-20T03:27:25;0.32;;;0.32;;
24729;SDS011;12832;52.392;13.066;2023-12-20T03:29:52;0.60;;;0.40;;
24729;SDS011;12832;52.392;13.066;2023-12-20T03:32:19;0.30;;;0.30;;
24729;SDS011;12832;52.392;13.066;2023-12-20T03:34:45;0.30;;;0.30;;
24729;SDS011;12832;52.392;13.066;2023-12-20T03:37:12;0.30;;;0.30;;
24729;SDS011;12832;52.392;13.066;2023-12-20T03:39:39;0.40;;;0.40;;
24729;SDS011;12832;52.392;13.066;2023-12-20T03:42:06;0.25;;;0.25;;
24729;SDS011;12832;52.392;13.066;2023-12-20T03:44:32;0.25;;;0.25;;
24729;SDS011;12832;52.392;13.066;2023-12-20T03:46:59;0.38;;;0.30;;
24729;SDS011;12832;52.392;13.066;2023-12-20T03:49:26;0.30;;;0.30;;
24729;SDS011;12832;52.392;13.066;2023-12-20T03:51:52;0.45;;;0.40;;
24729;SDS011;12832;52.392;13.066;2023-12-20T03:54:19;0.20;;;0.20;;
24729;SDS011;12832;52.392;13.066;2023-12-20T03:56:46;0.30;;;0.30;;
24729;SDS011;12832;52.392;13.066;2023-12-20T03:59:13;0.30;;;0.30;;
24729;SDS011;12832;52.392;13.066;2023-12-20T04:01:43;0.43;;;0.43;;
24729;SDS011;12832;52.392;13.066;2023-12-20T04:04:10;0.30;;;0.30;;
24729;SDS011;12832;52.392;13.066;2023-12-20T04:06:37;0.38;;;0.38;;
24729;SDS011;12832;52.392;13.066;2023-12-20T04:09:04;0.30;;;0.30;;
24729;SDS011;12832;52.392;13.066;2023-12-20T04:11:31;0.40;;;0.30;;
24729;SDS011;12832;52.392;13.066;2023-12-20T04:13:57;0.30;;;0.30;;
24729;SDS011;12832;52.392;13.066;2023-12-20T04:16:24;0.40;;;0.40;;
24729;SDS011;12832;52.392;13.066;2023-12-20T04:18:51;0.32;;;0.32;;
24729;SDS011;12832;52.392;13.066;2023-12-20T04:21:17;0.35;;;0.28;;
24729;SDS011;12832;52.392;13.066;2023-12-20T04:23:44;0.20;;;0.20;;
24729;SDS011;12832;52.392;13.066;2023-12-20T04:26:11;0.30;;;0.30;;
24729;SDS011;12832;52.392;13.066;2023-12-20T04:28:37;0.30;;;0.28;;
24729;SDS011;12832;52.392;13.066;2023-12-20T04:31:04;0.30;;;0.30;;
24729;SDS011;12832;52.392;13.066;2023-12-20T04:33:31;0.30;;;0.30;;
24729;SDS011;12832;52.392;13.066;2023-12-20T04:35:58;0.30;;;0.30;;
24729;SDS011;12832;52.392;13.066;2023-12-20T04:38:25;0.17;;;0.17;;
24729;SDS011;12832;52.392;13.066;2023-12-20T04:40:52;0.20;;;0.20;;
24729;SDS011;12832;52.392;13.066;2023-12-20T04:43:19;0.28;;;0.28;;
24729;SDS011;12832;52.392;13.066;2023-12-20T04:45:45;0.20;;;0.20;;
24729;SDS011;12832;52.392;13.066;2023-12-20T04:48:12;0.40;;;0.32;;
24729;SDS011;12832;52.392;13.066;2023-12-20T04:50:39;0.30;;;0.30;;
24729;SDS011;12832;52.392;13.066;2023-12-20T04:53:05;0.30;;;0.30;;
24729;SDS011;12832;52.392;13.066;2023-12-20T04:55:32;0.20;;;0.20;;
24729;SDS011;12832;52.392;13.066;2023-12-20T04:57:59;0.40;;;0.32;;
24729;SDS011;12832;52.392;13.066;2023-12-20T05:00:26;0.38;;;0.38;;
24729;SDS011;12832;52.392;13.066;2023-12-20T05:02:52;0.13;;;0.13;;
24729;SDS011;12832;52.392;13.066;2023-12-20T05:05:20;0.10;;;0.10;;
24729;SDS011;12832;52.392;13.066;2023-12-20T05:07:47;0.20;;;0.20;;
24729;SDS011;12832;52.392;13.066;2023-12-20T05:10:14;0.20;;;0.20;;
24729;SDS011;12832;52.392;13.066;2023-12-20T05:12:40;0.20;;;0.20;;
24729;SDS011;12832;52.392;13.066;2023-12-20T05:15:08;0.30;;;0.30;;
24729;SDS011;12832;52.392;13.066;2023-12-20T05:17:35;0.38;;;0.20;;
24729;SDS011;12832;52.392;13.066;2023-12-20T05:20:01;0.20;;;0.20;;
24729;SDS011;12832;52.392;13.066;2023-12-20T05:22:28;0.10;;;0.10;;
24729;SDS011;12832;52.392;13.066;2023-12-20T05:24:55;0.20;;;0.20;;
24729;SDS011;12832;52.392;13.066;2023-12-20T05:27:22;0.10;;;0.10;;
24729;SDS011;12832;52.392;13.066;2023-12-20T05:29:48;0.15;;;0.15;;
24729;SDS011;12832;52.392;13.066;2023-12-20T05:32:16;0.20;;;0.20;;
24729;SDS011;12832;52.392;13.066;2023-12-20T05:34:43;0.13;;;0.13;;
24729;SDS011;12832;52.392;13.066;2023-12-20T05:37:09;0.17;;;0.10;;
24729;SDS011;12832;52.392;13.066;2023-12-20T05:39:37;0.20;;;0.20;;
24729;SDS011;12832;52.392;13.066;2023-12-20T05:42:03;0.20;;;0.20;;
24729;SDS011;12832;52.392;13.066;2023-12-20T05:44:30;0.20;;;0.20;;
24729;SDS011;12832;52.392;13.066;2023-12-20T05:46:57;0.03;;;0.00;;
24729;SDS011;12832;52.392;13.066;2023-12-20T05:49:23;0.20;;;0.20;;
24729;SDS011;12832;52.392;13.066;2023-12-20T05:51:50;0.32;;;0.20;;
24729;SDS011;12832;52.392;13.066;2023-12-20T05:54:17;0.30;;;0.30;;
24729;SDS011;12832;52.392;13.066;2023-12-20T05:56:43;0.10;;;0.10;;
24729;SDS011;12832;52.392;13.066;2023-12-20T05:59:10;0.20;;;0.20;;
24729;SDS011;12832;52.392;13.066;2023-12-20T06:01:37;0.10;;;0.10;;
24729;SDS011;12832;52.392;13.066;2023-12-20T06:04:03;0.10;;;0.10;;
24729;SDS011;12832;52.392;13.066;2023-12-20T06:06:30;0.30;;;0.10;;
24729;SDS011;12832;52.392;13.066;2023-12-20T06:08:57;0.20;;;0.20;;
24729;SDS011;12832;52.392;13.066;2023-12-20T06:11:24;0.90;;;0.35;;
24729;SDS011;12832;52.392;13.066;2023-12-20T06:13:50;2.50;;;0.50;;
24729;SDS011;12832;52.392;13.066;2023-12-20T06:16:19;3.80;;;0.40;;
24729;SDS011;12832;52.392;13.066;2023-12-20T06:18:46;2.22;;;0.60;;
24729;SDS011;12832;52.392;13.066;2023-12-20T06:21:13;2.05;;;0.55;;
24729;SDS011;12832;52.392;13.066;2023-12-20T06:23:40;1.80;;;0.70;;
24729;SDS011;12832;52.392;13.066;2023-12-20T06:26:06;2.00;;;0.60;;
24729;SDS011;12832;52.392;13.066;2023-12-20T06:28:33;1.67;;;0.68;;
24729;SDS011;12832;52.392;13.066;2023-12-20T06:31:00;1.10;;;0.50;;
24729;SDS011;12832;52.392;13.066;2023-12-20T06:33:27;3.08;;;0.60;;
24729;SDS011;12832;52.392;13.066;2023-12-20T06:35:54;3.15;;;0.80;;
24729;SDS011;12832;52.392;13.066;2023-12-20T06:38:21;1.05;;;0.60;;
24729;SDS011;12832;52.392;13.066;2023-12-20T06:40:48;1.77;;;0.80;;
24729;SDS011;12832;52.392;13.066;2023-12-20T06:43:14;3.70;;;1.20;;
24729;SDS011;12832;52.392;13.066;2023-12-20T06:46:01;4.72;;;2.72;;
24729;SDS011;12832;52.392;13.066;2023-12-20T06:48:28;4.25;;;3.85;;
24729;SDS011;12832;52.392;13.066;2023-12-20T06:50:55;7.50;;;6.80;;
24729;SDS011;12832;52.392;13.066;2023-12-20T06:53:22;7.82;;;6.80;;
24729;SDS011;12832;52.392;13.066;2023-12-20T06:55:48;6.68;;;5.93;;
24729;SDS011;12832;52.392;13.066;2023-12-20T06:58:15;5.38;;;4.88;;
24729;SDS011;12832;52.392;13.066;2023-12-20T07:00:42;7.43;;;4.93;;
24729;SDS011;12832;52.392;13.066;2023-12-20T07:03:09;5.05;;;4.07;;
24729;SDS011;12832;52.392;13.066;2023-12-20T07:05:36;5.32;;;3.80;;
24729;SDS011;12832;52.392;13.066;2023-12-20T07:08:02;5.25;;;4.10;;
24729;SDS011;12832;52.392;13.066;2023-12-20T07:10:29;4.65;;;3.63;;
24729;SDS011;12832;52.392;13.066;2023-12-20T07:12:56;3.20;;;2.83;;
24729;SDS011;12832;52.392;13.066;2023-12-20T07:15:23;3.17;;;2.70;;
24729;SDS011;12832;52.392;13.066;2023-12-20T07:17:51;4.38;;;2.88;;
24729;SDS011;12832;52.392;13.066;2023-12-20T07:20:17;3.22;;;2.10;;
24729;SDS011;12832;52.392;13.066;2023-12-20T07:22:44;2.97;;;2.03;;
24729;SDS011;12832;52.392;13.066;2023-12-20T07:25:11;3.17;;;2.08;;
24729;SDS011;12832;52.392;13.066;2023-12-20T07:27:38;3.42;;;1.77;;
24729;SDS011;12832;52.392;13.066;2023-12-20T07:30:08;2.00;;;1.50;;
24729;SDS011;12832;52.392;13.066;2023-12-20T07:32:34;2.85;;;1.50;;
24729;SDS011;12832;52.392;13.066;2023-12-20T07:35:01;4.05;;;1.60;;
24729;SDS011;12832;52.392;13.066;2023-12-20T07:37:28;2.58;;;1.42;;
24729;SDS011;12832;52.392;13.066;2023-12-20T07:39:55;2.17;;;1.40;;
24729;SDS011;12832;52.392;13.066;2023-12-20T07:42:22;3.28;;;1.58;;
24729;SDS011;12832;52.392;13.066;2023-12-20T07:44:48;4.85;;;1.45;;
24729;SDS011;12832;52.392;13.066;2023-12-20T07:47:15;1.67;;;1.40;;
24729;SDS011;12832;52.392;13.066;2023-12-20T07:49:48;3.15;;;1.70;;
24729;SDS011;12832;52.392;13.066;2023-12-20T07:52:15;2.55;;;1.45;;
24729;SDS011;12832;52.392;13.066;2023-12-20T07:54:41;1.38;;;1.10;;
24729;SDS011;12832;52.392;13.066;2023-12-20T07:57:08;2.28;;;1.42;;
24729;SDS011;12832;52.392;13.066;2023-12-20T07:59:38;2.40;;;1.23;;
24729;SDS011;12832;52.392;13.066;2023-12-20T08:02:05;3.17;;;1.00;;
24729;SDS011;12832;52.392;13.066;2023-12-20T08:04:32;2.25;;;1.20;;
24729;SDS011;12832;52.392;13.066;2023-12-20T08:06:59;3.80;;;1.10;;
24729;SDS011;12832;52.392;13.066;2023-12-20T08:09:26;2.28;;;0.70;;
24729;SDS011;12832;52.392;13.066;2023-12-20T08:11:52;2.03;;;1.20;;
24729;SDS011;12832;52.392;13.066;2023-12-20T08:14:19;2.55;;;1.35;;
24729;SDS011;12832;52.392;13.066;2023-12-20T08:16:46;2.05;;;0.98;;
24729;SDS011;12832;52.392;13.066;2023-12-20T08:19:12;2.15;;;1.08;;
24729;SDS011;12832;52.392;13.066;2023-12-20T08:21:39;2.38;;;1.00;;
24729;SDS011;12832;52.392;13.066;2023-12-20T08:24:06;2.72;;;1.10;;
24729;SDS011;12832;52.392;13.066;2023-12-20T08:26:33;3.35;;;1.00;;
24729;SDS011;12832;52.392;13.066;2023-12-20T08:28:59;2.03;;;1.00;;
24729;SDS011;12832;52.392;13.066;2023-12-20T08:31:28;1.42;;;0.70;;
24729;SDS011;12832;52.392;13.066;2023-12-20T08:33:55;2.42;;;0.88;;
24729;SDS011;12832;52.392;13.066;2023-12-20T08:36:22;0.93;;;0.80;;
24729;SDS011;12832;52.392;13.066;2023-12-20T08:38:49;1.13;;;0.80;;
24729;SDS011;12832;52.392;13.066;2023-12-20T08:41:16;1.73;;;0.88;;
24729;SDS011;12832;52.392;13.066;2023-12-20T08:43:43;1.75;;;0.80;;
24729;SDS011;12832;52.392;13.066;2023-12-20T08:46:10;1.23;;;0.80;;
24729;SDS011;12832;52.392;13.066;2023-12-20T08:48:37;1.20;;;0.70;;
24729;SDS011;12832;52.392;13.066;2023-12-20T08:51:04;1.65;;;0.68;;
24729;SDS011;12832;52.392;13.066;2023-12-20T08:53:35;1.30;;;0.95;;
24729;SDS011;12832;52.392;13.066;2023-12-20T08:56:01;1.83;;;0.98;;
24729;SDS011;12832;52.392;13.066;2023-12-20T08:58:28;1.08;;;0.65;;
24729;SDS011;12832;52.392;13.066;2023-12-20T09:00:55;1.15;;;0.90;;
24729;SDS011;12832;52.392;13.066;2023-12-20T09:03:23;2.55;;;0.80;;
24729;SDS011;12832;52.392;13.066;2023-12-20T09:05:49;2.28;;;0.80;;
24729;SDS011;12832;52.392;13.066;2023-12-20T09:08:16;7.78;;;1.00;;
24729;SDS011;12832;52.392;13.066;2023-12-20T09:10:43;4.00;;;0.65;;
24729;SDS011;12832;52.392;13.066;2023-12-20T09:13:10;3.50;;;0.60;;
24729;SDS011;12832;52.392;13.066;2023-12-20T09:15:37;1.05;;;0.70;;
24729;SDS011;12832;52.392;13.066;2023-12-20T09:18:03;1.95;;;0.90;;
24729;SDS011;12832;52.392;13.066;2023-12-20T09:20:30;1.30;;;0.80;;
24729;SDS011;12832;52.392;13.066;2023-12-20T09:22:57;2.95;;;0.70;;
24729;SDS011;12832;52.392;13.066;2023-12-20T09:25:24;2.25;;;0.70;;
24729;SDS011;12832;52.392;13.066;2023-12-20T09:27:52;3.08;;;0.70;;
24729;SDS011;12832;52.392;13.066;2023-12-20T09:30:19;1.25;;;0.60;;
24729;SDS011;12832;52.392;13.066;2023-12-20T09:32:53;0.68;;;0.60;;
24729;SDS011;12832;52.392;13.066;2023-12-20T09:35:20;1.48;;;0.50;;
24729;SDS011;12832;52.392;13.066;2023-12-20T09:37:47;2.47;;;0.50;;
24729;SDS011;12832;52.392;13.066;2023-12-20T09:40:13;4.72;;;0.80;;
24729;SDS011;12832;52.392;13.066;2023-12-20T09:42:57;2.85;;;0.68;;
24729;SDS011;12832;52.392;13.066;2023-12-20T09:45:24;2.63;;;0.60;;
24729;SDS011;12832;52.392;13.066;2023-12-20T09:47:52;1.10;;;0.50;;
24729;SDS011;12832;52.392;13.066;2023-12-20T09:50:20;1.48;;;0.60;;
24729;SDS011;12832;52.392;13.066;2023-12-20T09:52:49;0.80;;;0.55;;
24729;SDS011;12832;52.392;13.066;2023-12-20T09:55:19;0.93;;;0.50;;
24729;SDS011;12832;52.392;13.066;2023-12-20T09:57:46;1.48;;;0.40;;
24729;SDS011;12832;52.392;13.066;2023-12-20T10:00:14;2.15;;;0.68;;
24729;SDS011;12832;52.392;13.066;2023-12-20T10:02:52;1.23;;;0.50;;
24729;SDS011;12832;52.392;13.066;2023-12-20T10:05:23;2.33;;;0.47;;
24729;SDS011;12832;52.392;13.066;2023-12-20T10:07:52;1.83;;;0.70;;
24729;SDS011;12832;52.392;13.066;2023-12-20T10:10:19;0.73;;;0.40;;
24729;SDS011;12832;52.392;13.066;2023-12-20T10:13:00;1.50;;;0.60;;
24729;SDS011;12832;52.392;13.066;2023-12-20T10:15:27;0.80;;;0.60;;
24729;SDS011;12832;52.392;13.066;2023-12-20T10:17:54;0.77;;;0.45;;
24729;SDS011;12832;52.392;13.066;2023-12-20T10:20:21;1.02;;;0.60;;
24729;SDS011;12832;52.392;13.066;2023-12-20T10:22:48;2.33;;;0.55;;
24729;SDS011;12832;52.392;13.066;2023-12-20T10:25:14;0.88;;;0.38;;
24729;SDS011;12832;52.392;13.066;2023-12-20T10:27:41;1.38;;;0.50;;
24729;SDS011;12832;52.392;13.066;2023-12-20T10:30:08;1.33;;;0.60;;
24729;SDS011;12832;52.392;13.066;2023-12-20T10:32:35;0.98;;;0.70;;
24729;SDS011;12832;52.392;13.066;2023-12-20T10:35:02;1.67;;;0.50;;
24729;SDS011;12832;52.392;13.066;2023-12-20T10:37:29;1.08;;;0.52;;
24729;SDS011;12832;52.392;13.066;2023-12-20T10:39:56;0.85;;;0.52;;
24729;SDS011;12832;52.392;13.066;2023-12-20T10:42:26;1.08;;;0.73;;
24729;SDS011;12832;52.392;13.066;2023-12-20T10:44:53;1.25;;;0.60;;
24729;SDS011;12832;52.392;13.066;2023-12-20T10:47:20;1.25;;;0.63;;
24729;SDS011;12832;52.392;13.066;2023-12-20T10:49:46;1.70;;;0.60;;
24729;SDS011;12832;52.392;13.066;2023-12-20T10:52:14;2.45;;;0.60;;
24729;SDS011;12832;52.392;13.066;2023-12-20T10:54:40;2.28;;;0.77;;
24729;SDS011;12832;52.392;13.066;2023-12-20T10:57:07;1.83;;;0.63;;
24729;SDS011;12832;52.392;13.066;2023-12-20T10:59:36;2.60;;;0.65;;
24729;SDS011;12832;52.392;13.066;2023-12-20T11:02:03;1.55;;;0.88;;
24729;SDS011;12832;52.392;13.066;2023-12-20T11:07:40;1.80;;;1.00;;
24729;SDS011;12832;52.392;13.066;2023-12-20T11:10:20;2.97;;;1.05;;
24729;SDS011;12832;52.392;13.066;2023-12-20T11:15:30;1.48;;;0.63;;
24729;SDS011;12832;52.392;13.066;2023-12-20T11:17:57;0.93;;;0.60;;
24729;SDS011;12832;52.392;13.066;2023-12-20T11:20:35;0.95;;;0.60;;
24729;SDS011;12832;52.392;13.066;2023-12-20T11:23:02;3.17;;;0.73;;
24729;SDS011;12832;52.392;13.066;2023-12-20T11:25:29;1.42;;;0.60;;
24729;SDS011;12832;52.392;13.066;2023-12-20T11:28:11;1.33;;;0.82;;
24729;SDS011;12832;52.392;13.066;2023-12-20T11:30:50;1.30;;;0.60;;
24729;SDS011;12832;52.392;13.066;2023-12-20T11:33:24;1.67;;;0.70;;
24729;SDS011;12832;52.392;13.066;2023-12-20T11:35:55;1.60;;;0.65;;
24729;SDS011;12832;52.392;13.066;2023-12-20T11:38:22;1.92;;;0.70;;
24729;SDS011;12832;52.392;13.066;2023-12-20T11:40:50;0.95;;;0.60;;
24729;SDS011;12832;52.392;13.066;2023-12-20T11:43:34;1.55;;;0.50;;
24729;SDS011;12832;52.392;13.066;2023-12-20T11:46:04;1.23;;;0.40;;
24729;SDS011;12832;52.392;13.066;2023-12-20T11:48:32;1.60;;;0.70;;
24729;SDS011;12832;52.392;13.066;2023-12-20T11:50:58;3.47;;;0.73;;
24729;SDS011;12832;52.392;13.066;2023-12-20T11:53:25;3.53;;;0.90;;
24729;SDS011;12832;52.392;13.066;2023-12-20T11:55:53;3.45;;;0.70;;
24729;SDS011;12832;52.392;13.066;2023-12-20T11:58:20;1.15;;;0.55;;
24729;SDS011;12832;52.392;13.066;2023-12-20T12:00:48;1.42;;;0.65;;
24729;SDS011;12832;52.392;13.066;2023-12-20T12:03:15;4.00;;;0.90;;
24729;SDS011;12832;52.392;13.066;2023-12-20T12:05:41;1.23;;;0.55;;
24729;SDS011;12832;52.392;13.066;2023-12-20T12:08:08;1.08;;;0.60;;
24729;SDS011;12832;52.392;13.066;2023-12-20T12:10:35;2.67;;;0.98;;
24729;SDS011;12832;52.392;13.066;2023-12-20T12:13:02;1.88;;;0.68;;
24729;SDS011;12832;52.392;13.066;2023-12-20T12:15:29;1.33;;;0.60;;
24729;SDS011;12832;52.392;13.066;2023-12-20T12:17:56;3.40;;;0.70;;
24729;SDS011;12832;52.392;13.066;2023-12-20T12:20:23;1.98;;;0.52;;
24729;SDS011;12832;52.392;13.066;2023-12-20T12:23:05;1.52;;;0.52;;
24729;SDS011;12832;52.392;13.066;2023-12-20T12:25:34;0.98;;;0.60;;
24729;SDS011;12832;52.392;13.066;2023-12-20T12:28:07;1.52;;;0.60;;
24729;SDS011;12832;52.392;13.066;2023-12-20T12:30:34;1.08;;;0.60;;
24729;SDS011;12832;52.392;13.066;2023-12-20T12:33:11;1.77;;;0.80;;
24729;SDS011;12832;52.392;13.066;2023-12-20T12:35:38;1.15;;;0.50;;
24729;SDS011;12832;52.392;13.066;2023-12-20T12:38:07;0.70;;;0.40;;
24729;SDS011;12832;52.392;13.066;2023-12-20T12:40:34;1.23;;;0.70;;
24729;SDS011;12832;52.392;13.066;2023-12-20T12:43:02;1.63;;;0.68;;
24729;SDS011;12832;52.392;13.066;2023-12-20T12:45:29;1.45;;;0.68;;
24729;SDS011;12832;52.392;13.066;2023-12-20T12:47:56;0.95;;;0.50;;
24729;SDS011;12832;52.392;13.066;2023-12-20T12:50:22;0.63;;;0.47;;
24729;SDS011;12832;52.392;13.066;2023-12-20T12:52:49;1.27;;;0.55;;
24729;SDS011;12832;52.392;13.066;2023-12-20T12:55:16;2.30;;;0.60;;
24729;SDS011;12832;52.392;13.066;2023-12-20T12:57:43;2.30;;;0.70;;
24729;SDS011;12832;52.392;13.066;2023-12-20T13:00:10;7.35;;;1.00;;
24729;SDS011;12832;52.392;13.066;2023-12-20T13:02:37;3.47;;;0.77;;
24729;SDS011;12832;52.392;13.066;2023-12-20T13:05:07;6.25;;;0.82;;
24729;SDS011;12832;52.392;13.066;2023-12-20T13:07:35;3.50;;;0.63;;
24729;SDS011;12832;52.392;13.066;2023-12-20T13:10:03;1.48;;;0.68;;
24729;SDS011;12832;52.392;13.066;2023-12-20T13:12:30;2.83;;;0.50;;
24729;SDS011;12832;52.392;13.066;2023-12-20T13:14:57;1.65;;;0.40;;
24729;SDS011;12832;52.392;13.066;2023-12-20T13:17:24;1.58;;;0.40;;
24729;SDS011;12832;52.392;13.066;2023-12-20T13:19:50;2.08;;;0.63;;
24729;SDS011;12832;52.392;13.066;2023-12-20T13:22:17;0.30;;;0.25;;
24729;SDS011;12832;52.392;13.066;2023-12-20T13:24:44;1.30;;;0.50;;
24729;SDS011;12832;52.392;13.066;2023-12-20T13:27:11;2.50;;;0.70;;
24729;SDS011;12832;52.392;13.066;2023-12-20T13:29:38;1.77;;;0.70;;
24729;SDS011;12832;52.392;13.066;2023-12-20T13:32:06;0.47;;;0.32;;
24729;SDS011;12832;52.392;13.066;2023-12-20T13:34:33;1.10;;;0.57;;
24729;SDS011;12832;52.392;13.066;2023-12-20T13:36:59;1.35;;;0.70;;
24729;SDS011;12832;52.392;13.066;2023-12-20T13:39:26;2.15;;;0.63;;
24729;SDS011;12832;52.392;13.066;2023-12-20T13:41:53;1.60;;;0.55;;
24729;SDS011;12832;52.392;13.066;2023-12-20T13:44:22;1.67;;;0.47;;
24729;SDS011;12832;52.392;13.066;2023-12-20T13:46:48;1.15;;;0.40;;
24729;SDS011;12832;52.392;13.066;2023-12-20T13:49:15;0.75;;;0.32;;
24729;SDS011;12832;52.392;13.066;2023-12-20T13:51:42;1.15;;;0.60;;
24729;SDS011;12832;52.392;13.066;2023-12-20T13:54:09;2.13;;;0.70;;
24729;SDS011;12832;52.392;13.066;2023-12-20T13:56:36;2.88;;;0.93;;
24729;SDS011;12832;52.392;13.066;2023-12-20T13:59:17;0.93;;;0.70;;
24729;SDS011;12832;52.392;13.066;2023-12-20T14:01:44;1.20;;;0.80;;
24729;SDS011;12832;52.392;13.066;2023-12-20T14:04:11;1.67;;;0.73;;
24729;SDS011;12832;52.392;13.066;2023-12-20T14:06:57;1.08;;;0.90;;
24729;SDS011;12832;52.392;13.066;2023-12-20T14:09:24;2.25;;;1.20;;
24729;SDS011;12832;52.392;13.066;2023-12-20T14:11:51;1.77;;;1.30;;
24729;SDS011;12832;52.392;13.066;2023-12-20T14:14:18;3.50;;;1.38;;
24729;SDS011;12832;52.392;13.066;2023-12-20T14:16:44;2.13;;;1.40;;
24729;SDS011;12832;52.392;13.066;2023-12-20T14:19:12;4.25;;;2.05;;
24729;SDS011;12832;52.392;13.066;2023-12-20T14:21:39;1.98;;;1.50;;
24729;SDS011;12832;52.392;13.066;2023-12-20T14:24:05;2.88;;;1.60;;
24729;SDS011;12832;52.392;13.066;2023-12-20T14:26:32;3.03;;;1.50;;
24729;SDS011;12832;52.392;13.066;2023-12-20T14:28:59;2.22;;;1.50;;
24729;SDS011;12832;52.392;13.066;2023-12-20T14:31:25;2.58;;;1.73;;
24729;SDS011;12832;52.392;13.066;2023-12-20T14:33:52;3.13;;;1.25;;
24729;SDS011;12832;52.392;13.066;2023-12-20T14:36:21;1.98;;;1.45;;
24729;SDS011;12832;52.392;13.066;2023-12-20T14:38:48;2.20;;;1.60;;
24729;SDS011;12832;52.392;13.066;2023-12-20T14:41:16;2.38;;;1.40;;